createdAt,value
2019-01-06T00:01:49.146Z,3.33
2019-01-06T00:04:36.339Z,4.23
2019-01-06T00:07:24.343Z,6.63
2019-01-06T00:10:21.496Z,4.50
2019-01-06T00:13:08.174Z,2.63
2019-01-06T00:15:55.103Z,4.43
2019-01-06T00:18:51.819Z,4.17
2019-01-06T00:21:45.970Z,3.30
2019-01-06T00:24:32.579Z,4.50
2019-01-06T00:27:19.290Z,4.03
2019-01-06T00:30:06.294Z,5.90
2019-01-06T00:32:53.192Z,2.90
2019-01-06T00:35:41.177Z,3.80
2019-01-06T00:38:29.206Z,12.50
2019-01-06T00:41:16.126Z,3.80
2019-01-06T00:44:04.123Z,2.80
2019-01-06T00:47:07.275Z,9.70
2019-01-06T00:50:09.864Z,2.97
2019-01-06T00:52:56.633Z,2.60
2019-01-06T00:55:43.576Z,6.40
2019-01-06T00:58:45.316Z,4.17
2019-01-06T01:01:30.287Z,2.63
2019-01-06T01:04:24.319Z,4.00
2019-01-06T01:07:30.427Z,5.13
2019-01-06T01:10:36.487Z,3.60
2019-01-06T01:13:30.161Z,2.57
2019-01-06T01:16:16.533Z,3.90
2019-01-06T01:19:03.171Z,4.73
2019-01-06T01:21:57.366Z,2.23
2019-01-06T01:24:51.307Z,2.70
2019-01-06T01:27:38.111Z,2.73
2019-01-06T01:30:30.907Z,3.80
2019-01-06T01:33:37.047Z,6.23
2019-01-06T01:36:40.243Z,3.03
2019-01-06T01:39:36.718Z,2.90
2019-01-06T01:42:18.642Z,2.87
2019-01-06T01:45:05.269Z,7.33
2019-01-06T01:47:56.371Z,4.70
2019-01-06T01:50:56.905Z,3.80
2019-01-06T01:53:49.760Z,2.60
2019-01-06T01:56:36.492Z,2.47
2019-01-06T01:59:25.223Z,4.83
2019-01-06T02:02:13.850Z,8.63
2019-01-06T02:05:17.196Z,2.50
2019-01-06T02:08:15.962Z,7.53
2019-01-06T02:11:07.177Z,3.10
2019-01-06T02:14:10.281Z,4.90
2019-01-06T02:16:56.096Z,5.43
2019-01-06T02:19:51.979Z,3.73
2019-01-06T02:22:38.747Z,3.07
2019-01-06T02:25:26.102Z,5.87
2019-01-06T02:28:20.240Z,5.10
2019-01-06T02:31:03.206Z,9.77
2019-01-06T02:33:49.825Z,8.80
2019-01-06T02:36:48.437Z,5.20
2019-01-06T02:39:42.267Z,4.33
2019-01-06T02:42:28.919Z,6.07
2019-01-06T02:45:15.678Z,4.87
2019-01-06T02:48:03.708Z,6.37
2019-01-06T02:50:50.479Z,2.60
2019-01-06T02:53:37.281Z,3.23
2019-01-06T02:56:25.220Z,3.17
2019-01-06T02:59:12.020Z,3.37
2019-01-06T03:01:58.922Z,3.37
2019-01-06T03:04:45.627Z,2.97
2019-01-06T03:07:42.663Z,5.87
2019-01-06T03:10:44.770Z,2.97
2019-01-06T03:13:28.200Z,2.73
2019-01-06T03:16:14.739Z,4.77
2019-01-06T03:19:21.251Z,3.33
2019-01-06T03:22:18.329Z,2.40
2019-01-06T03:25:18.286Z,2.70
2019-01-06T03:27:57.244Z,1.77
2019-01-06T03:30:58.303Z,2.23
2019-01-06T03:33:54.122Z,2.17
2019-01-06T03:36:38.830Z,4.90
2019-01-06T03:39:33.150Z,2.20
2019-01-06T03:42:36.616Z,3.00
2019-01-06T03:45:23.829Z,2.60
2019-01-06T03:48:24.512Z,2.80
2019-01-06T03:51:11.275Z,2.43
2019-01-06T03:54:02.654Z,2.17
2019-01-06T03:56:49.559Z,2.33
2019-01-06T03:59:43.751Z,7.13
2019-01-06T04:02:30.556Z,3.80
2019-01-06T04:05:30.948Z,2.70
2019-01-06T04:08:17.690Z,2.03
2019-01-06T04:11:18.087Z,3.53
2019-01-06T04:14:05.343Z,10.00
2019-01-06T04:16:52.357Z,2.07
2019-01-06T04:19:55.520Z,2.53
2019-01-06T04:22:46.296Z,2.00
2019-01-06T04:25:33.095Z,3.77
2019-01-06T04:28:24.188Z,3.10
2019-01-06T04:31:08.415Z,1.53
2019-01-06T04:33:58.206Z,6.30
2019-01-06T04:36:51.981Z,2.20
2019-01-06T04:39:38.848Z,4.60
2019-01-06T04:42:25.684Z,2.10
2019-01-06T04:45:16.531Z,3.60
2019-01-06T04:48:19.561Z,1.77
2019-01-06T04:51:07.574Z,3.43
2019-01-06T04:53:53.188Z,1.83
2019-01-06T04:56:44.389Z,2.57
2019-01-06T04:59:32.444Z,1.83
2019-01-06T05:02:17.584Z,3.20
2019-01-06T05:05:03.150Z,1.17
2019-01-06T05:07:48.439Z,2.67
2019-01-06T05:10:34.945Z,1.97
2019-01-06T05:13:26.276Z,2.57
2019-01-06T05:16:14.187Z,2.20
2019-01-06T05:18:52.371Z,3.73
2019-01-06T05:21:55.705Z,1.73
2019-01-06T05:24:49.340Z,1.80
2019-01-06T05:27:46.251Z,2.00
2019-01-06T05:30:34.290Z,1.90
2019-01-06T05:33:17.408Z,3.00
2019-01-06T05:36:09.175Z,1.47
2019-01-06T05:39:15.094Z,2.57
2019-01-06T05:41:56.526Z,3.50
2019-01-06T05:44:56.883Z,3.50
2019-01-06T05:47:56.928Z,2.83
2019-01-06T05:50:47.911Z,2.47
2019-01-06T05:53:33.654Z,3.27
2019-01-06T05:56:20.543Z,3.77
2019-01-06T05:59:17.730Z,2.90
2019-01-06T06:02:02.431Z,1.93
2019-01-06T06:04:50.373Z,2.40
2019-01-06T06:07:50.296Z,3.30
2019-01-06T06:10:31.899Z,1.70
2019-01-06T06:13:10.438Z,4.00
2019-01-06T06:15:58.338Z,1.50
2019-01-06T06:19:01.365Z,2.80
2019-01-06T06:21:47.714Z,3.03
2019-01-06T06:24:34.368Z,2.67
2019-01-06T06:27:25.339Z,3.50
2019-01-06T06:30:12.095Z,3.30
2019-01-06T06:33:09.342Z,2.80
2019-01-06T06:36:00.151Z,2.87
2019-01-06T06:38:43.157Z,3.30
2019-01-06T06:41:19.663Z,3.20
2019-01-06T06:44:06.228Z,2.33
2019-01-06T06:46:53.116Z,4.00
2019-01-06T06:49:46.938Z,6.30
2019-01-06T06:52:33.859Z,3.13
2019-01-06T06:55:12.918Z,7.93
2019-01-06T06:58:34.508Z,4.57
2019-01-06T07:01:42.080Z,3.67
2019-01-06T07:04:39.882Z,4.63
2019-01-06T07:07:27.958Z,3.43
2019-01-06T07:10:25.055Z,6.13
2019-01-06T07:13:11.545Z,3.40
2019-01-06T07:16:06.268Z,4.67
2019-01-06T07:19:01.201Z,3.20
2019-01-06T07:21:47.953Z,2.60
2019-01-06T07:24:42.226Z,3.80
2019-01-06T07:27:29.166Z,4.73
2019-01-06T07:30:15.967Z,3.67
2019-01-06T07:33:00.039Z,2.20
2019-01-06T07:35:46.816Z,4.53
2019-01-06T07:38:33.471Z,4.40
2019-01-06T07:41:30.681Z,3.70
2019-01-06T07:44:21.854Z,5.10
2019-01-06T07:47:08.205Z,4.67
2019-01-06T07:49:49.890Z,3.97
2019-01-06T07:52:37.108Z,6.00
2019-01-06T07:55:28.156Z,5.17
2019-01-06T07:58:19.365Z,10.97
2019-01-06T08:00:58.182Z,6.87
2019-01-06T08:03:46.178Z,4.00
2019-01-06T08:06:35.978Z,4.83
2019-01-06T08:09:24.796Z,6.20
2019-01-06T08:12:12.901Z,4.40
2019-01-06T08:14:59.649Z,6.43
2019-01-06T08:17:47.413Z,4.53
2019-01-06T08:20:34.443Z,5.70
2019-01-06T08:23:40.889Z,12.37
2019-01-06T08:26:28.990Z,4.73
2019-01-06T08:29:28.814Z,5.17
2019-01-06T08:32:08.337Z,4.83
2019-01-06T08:34:56.375Z,9.47
2019-01-06T08:38:00.897Z,6.47
2019-01-06T08:40:54.877Z,7.53
2019-01-06T08:43:52.270Z,6.23
2019-01-06T08:46:40.284Z,5.60
2019-01-06T08:49:29.713Z,4.33
2019-01-06T08:52:16.480Z,8.17
2019-01-06T08:55:16.623Z,5.70
2019-01-06T08:58:03.480Z,5.33
2019-01-06T09:01:09.760Z,9.33
2019-01-06T09:03:56.592Z,6.47
2019-01-06T09:06:44.610Z,8.37
2019-01-06T09:09:45.742Z,10.00
2019-01-06T09:12:45.253Z,10.10
2019-01-06T09:15:47.618Z,9.13
2019-01-06T09:18:32.701Z,6.33
2019-01-06T09:21:36.220Z,7.27
2019-01-06T09:24:21.053Z,9.67
2019-01-06T09:27:15.062Z,7.73
2019-01-06T09:30:06.198Z,7.33
2019-01-06T09:32:53.009Z,8.70
2019-01-06T09:35:39.894Z,9.80
2019-01-06T09:38:43.136Z,10.93
2019-01-06T09:41:33.784Z,8.27
2019-01-06T09:44:33.809Z,7.97
2019-01-06T09:47:13.134Z,8.93
2019-01-06T09:49:59.821Z,6.80
2019-01-06T09:52:46.876Z,11.87
2019-01-06T09:55:43.975Z,12.90
2019-01-06T09:58:34.871Z,7.83
2019-01-06T10:01:20.443Z,10.83
2019-01-06T10:04:17.770Z,8.33
2019-01-06T10:10:01.105Z,10.07
2019-01-06T10:12:48.116Z,6.70
2019-01-06T10:15:34.963Z,8.23
2019-01-06T10:18:22.884Z,7.10
2019-01-06T10:21:22.188Z,8.80
2019-01-06T10:24:01.584Z,8.60
2019-01-06T10:26:54.403Z,6.67
2019-01-06T10:29:42.419Z,10.93
2019-01-06T10:32:36.178Z,9.57
2019-01-06T10:35:36.855Z,8.40
2019-01-06T10:38:40.386Z,7.77
2019-01-06T10:41:26.908Z,8.77
2019-01-06T10:44:29.955Z,7.43
2019-01-06T10:47:16.231Z,7.30
2019-01-06T10:50:03.069Z,9.10
2019-01-06T10:53:06.263Z,7.83
2019-01-06T10:55:52.631Z,9.10
2019-01-06T10:58:41.846Z,8.90
2019-01-06T11:01:38.866Z,6.50
2019-01-06T11:04:25.474Z,7.43
2019-01-06T11:07:12.170Z,8.83
2019-01-06T11:09:58.871Z,7.83
2019-01-06T11:13:05.193Z,8.17
2019-01-06T11:15:53.439Z,9.00
2019-01-06T11:18:39.919Z,7.87
2019-01-06T11:21:40.411Z,11.07
2019-01-06T11:24:31.368Z,7.70
2019-01-06T11:27:25.415Z,8.50
2019-01-06T11:30:22.651Z,6.83
2019-01-06T11:33:10.769Z,8.10
2019-01-06T11:36:06.564Z,6.03
2019-01-06T11:38:53.428Z,7.37
2019-01-06T11:41:34.773Z,7.97
2019-01-06T11:44:31.894Z,8.77
2019-01-06T11:47:23.273Z,8.10
2019-01-06T11:50:10.204Z,8.17
2019-01-06T11:52:51.519Z,6.83
2019-01-06T11:55:42.041Z,7.10
2019-01-06T11:58:33.100Z,7.70
2019-01-06T12:01:20.108Z,9.73
2019-01-06T12:04:06.605Z,6.13
2019-01-06T12:06:53.599Z,9.47
2019-01-06T12:09:52.099Z,7.27
2019-01-06T12:12:52.121Z,7.00
2019-01-06T12:15:40.033Z,7.70
2019-01-06T12:18:26.667Z,8.27
2019-01-06T12:21:13.477Z,8.67
2019-01-06T12:24:19.699Z,8.10
2019-01-06T12:27:10.548Z,6.13
2019-01-06T12:29:57.062Z,7.00
2019-01-06T12:33:03.294Z,6.00
2019-01-06T12:35:49.662Z,6.17
2019-01-06T12:38:38.632Z,5.60
2019-01-06T12:41:23.945Z,10.30
2019-01-06T12:44:12.864Z,6.00
2019-01-06T12:47:14.977Z,7.40
2019-01-06T12:50:15.361Z,7.97
2019-01-06T12:53:15.451Z,5.43
2019-01-06T12:56:01.942Z,6.70
2019-01-06T12:58:42.822Z,5.73
2019-01-06T13:01:33.570Z,10.37
2019-01-06T13:04:23.476Z,8.83
2019-01-06T13:07:10.092Z,7.37
2019-01-06T13:09:50.143Z,6.07
2019-01-06T13:12:53.372Z,7.10
2019-01-06T13:15:39.931Z,7.93
2019-01-06T13:18:46.307Z,7.50
2019-01-06T13:21:32.875Z,6.70
2019-01-06T13:24:12.331Z,7.30
2019-01-06T13:27:00.470Z,6.37
2019-01-06T13:30:07.078Z,6.90
2019-01-06T13:32:55.366Z,6.57
2019-01-06T13:35:39.664Z,9.80
2019-01-06T13:38:25.461Z,5.80
2019-01-06T13:41:18.563Z,7.03
2019-01-06T13:44:05.481Z,6.43
2019-01-06T13:46:52.627Z,5.87
2019-01-06T13:49:39.419Z,5.97
2019-01-06T13:52:36.594Z,8.00
2019-01-06T13:55:24.144Z,8.00
2019-01-06T13:58:18.004Z,7.63
2019-01-06T14:01:05.090Z,7.73
2019-01-06T14:03:53.059Z,6.93
2019-01-06T14:06:40.090Z,8.60
2019-01-06T14:09:46.171Z,8.03
2019-01-06T14:12:52.618Z,6.80
2019-01-06T14:15:39.407Z,8.20
2019-01-06T14:18:25.787Z,7.73
2019-01-06T14:21:12.420Z,7.80
2019-01-06T14:24:00.435Z,7.97
2019-01-06T14:26:47.211Z,9.50
2019-01-06T14:29:30.373Z,9.20
2019-01-06T14:32:21.402Z,12.30
2019-01-06T14:35:04.566Z,8.10
2019-01-06T14:37:47.334Z,8.10
2019-01-06T14:40:53.770Z,8.37
2019-01-06T14:43:47.438Z,9.73
2019-01-06T14:46:47.162Z,8.87
2019-01-06T14:49:35.323Z,8.00
2019-01-06T14:52:21.948Z,8.47
2019-01-06T14:55:08.820Z,8.73
2019-01-06T14:57:55.281Z,8.60
2019-01-06T15:00:42.203Z,10.93
2019-01-06T15:03:39.118Z,8.10
2019-01-06T15:06:29.800Z,10.50
2019-01-06T15:09:29.238Z,17.60
2019-01-06T15:12:20.274Z,9.20
2019-01-06T15:15:01.800Z,7.93
2019-01-06T15:17:48.597Z,8.97
2019-01-06T15:20:48.887Z,8.83
2019-01-06T15:23:54.852Z,9.53
2019-01-06T15:26:33.509Z,9.40
2019-01-06T15:29:20.191Z,9.10
2019-01-06T15:32:14.002Z,9.40
2019-01-06T15:35:00.571Z,8.50
2019-01-06T15:37:47.423Z,10.00
2019-01-06T15:40:34.199Z,9.63
2019-01-06T15:43:30.769Z,10.53
2019-01-06T15:46:11.907Z,9.00
2019-01-06T15:49:12.206Z,8.13
2019-01-06T15:52:00.174Z,17.33
2019-01-06T15:54:48.063Z,8.60
2019-01-06T15:57:34.612Z,8.67
2019-01-06T16:00:21.344Z,8.93
2019-01-06T16:03:02.010Z,9.00
2019-01-06T16:06:05.306Z,11.20
2019-01-06T16:09:02.098Z,13.00
2019-01-06T16:11:48.747Z,9.47
2019-01-06T16:14:36.635Z,9.40
2019-01-06T16:17:23.460Z,9.77
2019-01-06T16:20:07.506Z,9.70
2019-01-06T16:23:07.386Z,9.90
2019-01-06T16:26:10.419Z,8.80
2019-01-06T16:29:10.455Z,9.67
2019-01-06T16:32:04.460Z,7.70
2019-01-06T16:34:50.992Z,9.30
2019-01-06T16:37:37.686Z,11.40
2019-01-06T16:40:31.847Z,15.57
2019-01-06T16:43:30.666Z,9.53
2019-01-06T16:46:17.835Z,11.73
2019-01-06T16:49:04.305Z,11.23
2019-01-06T16:52:10.132Z,11.00
2019-01-06T16:55:07.166Z,12.27
2019-01-06T16:57:54.103Z,9.03
2019-01-06T17:00:45.089Z,9.53
2019-01-06T17:03:27.324Z,9.80
2019-01-06T17:06:18.272Z,8.20
2019-01-06T17:09:06.270Z,8.70
2019-01-06T17:11:57.271Z,9.90
2019-01-06T17:14:43.870Z,10.40
2019-01-06T17:17:30.654Z,9.70
2019-01-06T17:20:21.276Z,9.23
2019-01-06T17:23:18.077Z,9.47
2019-01-06T17:26:01.850Z,12.13
2019-01-06T17:28:48.331Z,11.70
2019-01-06T17:31:35.337Z,10.20
2019-01-06T17:34:38.412Z,10.10
2019-01-06T17:37:38.567Z,9.70
2019-01-06T17:40:21.588Z,9.83
2019-01-06T17:43:12.607Z,11.53
2019-01-06T17:46:18.926Z,10.10
2019-01-06T17:49:17.545Z,9.43
2019-01-06T17:52:05.483Z,10.20
2019-01-06T17:54:56.438Z,9.50
2019-01-06T17:57:40.161Z,11.80
2019-01-06T18:00:47.309Z,9.30
2019-01-06T18:03:44.587Z,9.43
2019-01-06T18:06:32.569Z,13.30
2019-01-06T18:09:17.463Z,10.27
2019-01-06T18:12:11.247Z,9.10
2019-01-06T18:14:57.734Z,10.00
2019-01-06T18:17:50.919Z,8.90
2019-01-06T18:20:51.037Z,9.60
2019-01-06T18:23:54.136Z,11.70
2019-01-06T18:26:34.389Z,9.37
2019-01-06T18:29:37.490Z,10.13
2019-01-06T18:32:24.104Z,13.53
2019-01-06T18:35:15.055Z,10.17
2019-01-06T18:38:00.790Z,11.13
2019-01-06T18:40:47.219Z,10.03
2019-01-06T18:43:47.467Z,11.77
2019-01-06T18:46:34.249Z,10.13
2019-01-06T18:49:20.857Z,10.40
2019-01-06T18:52:12.763Z,9.67
2019-01-06T18:54:58.610Z,9.47
2019-01-06T18:57:47.633Z,12.80
2019-01-06T19:00:34.146Z,10.60
2019-01-06T19:03:18.754Z,10.80
2019-01-06T19:06:19.277Z,10.97
2019-01-06T19:09:07.853Z,10.60
2019-01-06T19:11:58.547Z,14.07
2019-01-06T19:14:37.713Z,11.50
2019-01-06T19:17:41.450Z,9.33
2019-01-06T19:20:32.505Z,11.77
2019-01-06T19:23:26.692Z,12.10
2019-01-06T19:26:13.579Z,14.50
2019-01-06T19:29:00.522Z,11.97
2019-01-06T19:31:37.640Z,11.90
2019-01-06T19:34:28.736Z,17.07
2019-01-06T19:37:15.270Z,15.63
2019-01-06T19:40:11.343Z,14.60
2019-01-06T19:43:14.581Z,12.67
2019-01-06T19:46:05.576Z,15.53
2019-01-06T19:49:02.483Z,14.90
2019-01-06T19:51:50.567Z,15.83
2019-01-06T19:54:37.313Z,14.53
2019-01-06T19:57:34.584Z,14.73
2019-01-06T20:00:22.348Z,14.20
2019-01-06T20:03:13.864Z,15.53
2019-01-06T20:06:00.930Z,14.87
2019-01-06T20:08:49.138Z,16.57
2019-01-06T20:11:55.371Z,17.03
2019-01-06T20:14:58.436Z,13.73
2019-01-06T20:17:52.695Z,19.13
2019-01-06T20:20:42.726Z,17.33
2019-01-06T20:23:32.070Z,17.17
2019-01-06T20:26:18.955Z,14.13
2019-01-06T20:29:06.887Z,16.40
2019-01-06T20:32:03.961Z,17.77
2019-01-06T20:34:50.618Z,17.30
2019-01-06T20:37:33.636Z,17.07
2019-01-06T20:40:20.437Z,16.80
2019-01-06T20:43:01.631Z,17.00
2019-01-06T20:46:02.359Z,15.87
2019-01-06T20:48:50.658Z,17.97
2019-01-06T20:51:57.042Z,18.60
2019-01-06T20:54:43.743Z,19.43
2019-01-06T20:57:32.470Z,15.50
2019-01-06T21:00:28.434Z,17.57
2019-01-06T21:03:15.226Z,17.23
2019-01-06T21:06:01.901Z,16.60
2019-01-06T21:08:51.112Z,18.13
2019-01-06T21:11:38.320Z,18.57
2019-01-06T21:14:41.756Z,17.73
2019-01-06T21:17:31.755Z,18.23
2019-01-06T21:20:15.513Z,16.57
2019-01-06T21:23:02.387Z,17.80
2019-01-06T21:25:41.976Z,17.73
2019-01-06T21:28:21.761Z,20.03
2019-01-06T21:31:09.516Z,15.43
2019-01-06T21:33:51.840Z,16.70
2019-01-06T21:36:52.082Z,18.37
2019-01-06T21:39:38.854Z,17.67
2019-01-06T21:42:25.751Z,18.03
2019-01-06T21:45:06.563Z,17.70
2019-01-06T21:47:53.153Z,19.20
2019-01-06T21:50:56.271Z,16.63
2019-01-06T21:53:43.080Z,18.93
2019-01-06T21:56:27.130Z,17.80
2019-01-06T21:59:07.434Z,20.53
2019-01-06T22:01:53.404Z,19.90
2019-01-06T22:04:44.472Z,19.17
2019-01-06T22:07:44.709Z,20.10
2019-01-06T22:10:40.235Z,19.13
2019-01-06T22:13:27.117Z,22.50
2019-01-06T22:16:24.357Z,19.60
2019-01-06T22:19:10.888Z,17.50
2019-01-06T22:22:05.111Z,20.33
2019-01-06T22:24:55.798Z,15.67
2019-01-06T22:27:37.510Z,22.53
2019-01-06T22:30:38.463Z,17.23
2019-01-06T22:33:25.815Z,16.70
2019-01-06T22:36:23.098Z,18.03
2019-01-06T22:39:09.895Z,18.07
2019-01-06T22:42:10.970Z,17.53
2019-01-06T22:45:14.248Z,18.27
2019-01-06T22:48:10.671Z,16.30
2019-01-06T22:50:50.618Z,15.70
2019-01-06T22:53:54.136Z,17.33
2019-01-06T22:56:52.555Z,18.67
2019-01-06T22:59:39.170Z,15.30
2019-01-06T23:02:33.288Z,16.23
2019-01-06T23:05:24.178Z,18.83
2019-01-06T23:08:17.988Z,15.43
2019-01-06T23:11:00.005Z,15.30
2019-01-06T23:13:46.664Z,19.37
2019-01-06T23:16:40.970Z,14.60
2019-01-06T23:19:27.043Z,16.23
2019-01-06T23:22:14.946Z,15.00
2019-01-06T23:25:02.850Z,15.33
2019-01-06T23:27:53.595Z,16.67
2019-01-06T23:30:40.624Z,16.07
2019-01-06T23:33:23.250Z,17.37
2019-01-06T23:36:10.320Z,14.00
2019-01-06T23:39:01.568Z,15.00
2019-01-06T23:41:48.068Z,16.87
2019-01-06T23:44:34.790Z,16.10
2019-01-06T23:47:34.128Z,13.63
2019-01-06T23:50:20.860Z,15.17
2019-01-06T23:53:07.692Z,15.47
2019-01-06T23:56:04.967Z,15.90
2019-01-06T23:58:53.212Z,15.77
